Wheeler, Indiana
Current Conditions -  °F | °C
As of 10:56 AM on Thursday 23 Oct 2014 (Local Time) from KVPZ Reporting Station
Clear Clear  
Wind Chill: 51°   Ceiling: Unl
Heat Index: 51°   Visibility: 10mi
Dew Point: 42°   Wind: 7mph
Humidity: 71%   Direction: 210°SSW
Pressure: 30.23"   Gusts: NA
Location:  41.51°N, 87.18°W
Report Text: KVPZ 231556Z AUTO 21006KT 10SM CLR 11/06 A3023 RMK AO2 SLP240 T01060056 TSNO
Loading
Personal Weather Stations






























Interactive Weather Map
Tropical Storm Tracking
New forecast layout! Learn more

10-Day Weather Forecast

Advertisements
Track Severe Weather on mobile